sensor_id;sensor_type;location;lat;lon;timestamp;pressure;altitude;pressure_sealevel;temperature;humidity
19751;BME280;4663;49.120;9.730;2022-12-07T00:01:37;98119.66;;;-0.77;92.98
19751;BME280;4663;49.120;9.730;2022-12-07T00:04:05;98111.91;;;-0.81;92.76
19751;BME280;4663;49.120;9.730;2022-12-07T00:06:54;98116.66;;;-0.73;92.67
19751;BME280;4663;49.120;9.730;2022-12-07T00:09:19;98117.13;;;-0.79;92.67
19751;BME280;4663;49.120;9.730;2022-12-07T00:11:48;98109.50;;;-0.97;93.47
19751;BME280;4663;49.120;9.730;2022-12-07T00:14:15;98114.28;;;-1.02;93.61
19751;BME280;4663;49.120;9.730;2022-12-07T00:16:41;98108.88;;;-1.00;93.93
19751;BME280;4663;49.120;9.730;2022-12-07T00:19:06;98113.94;;;-0.97;93.36
19751;BME280;4663;49.120;9.730;2022-12-07T00:21:34;98100.38;;;-0.92;93.32
19751;BME280;4663;49.120;9.730;2022-12-07T00:24:00;98099.66;;;-1.08;93.48
19751;BME280;4663;49.120;9.730;2022-12-07T00:26:28;98099.13;;;-1.00;93.96
19751;BME280;4663;49.120;9.730;2022-12-07T00:29:01;98106.66;;;-0.94;93.58
19751;BME280;4663;49.120;9.730;2022-12-07T00:31:30;98095.06;;;-0.92;93.17
19751;BME280;4663;49.120;9.730;2022-12-07T00:33:57;98095.94;;;-1.05;93.42
19751;BME280;4663;49.120;9.730;2022-12-07T00:36:23;98094.06;;;-1.16;93.93
19751;BME280;4663;49.120;9.730;2022-12-07T00:38:49;98098.59;;;-1.18;93.79
19751;BME280;4663;49.120;9.730;2022-12-07T00:41:20;98094.47;;;-1.22;93.41
19751;BME280;4663;49.120;9.730;2022-12-07T00:43:47;98092.31;;;-1.04;93.29
19751;BME280;4663;49.120;9.730;2022-12-07T00:46:13;98093.44;;;-1.20;93.32
19751;BME280;4663;49.120;9.730;2022-12-07T00:48:39;98095.31;;;-1.09;93.25
19751;BME280;4663;49.120;9.730;2022-12-07T00:51:05;98091.59;;;-1.06;92.98
19751;BME280;4663;49.120;9.730;2022-12-07T00:53:33;98094.66;;;-1.12;92.82
19751;BME280;4663;49.120;9.730;2022-12-07T00:56:04;98092.44;;;-1.05;92.59
19751;BME280;4663;49.120;9.730;2022-12-07T00:58:30;98087.88;;;-1.03;91.99
19751;BME280;4663;49.120;9.730;2022-12-07T01:00:59;98094.84;;;-1.02;92.52
19751;BME280;4663;49.120;9.730;2022-12-07T01:03:25;98094.44;;;-1.09;92.41
19751;BME280;4663;49.120;9.730;2022-12-07T01:05:52;98093.06;;;-1.02;92.16
19751;BME280;4663;49.120;9.730;2022-12-07T01:08:17;98101.16;;;-1.16;92.62
19751;BME280;4663;49.120;9.730;2022-12-07T01:10:43;98100.84;;;-1.25;92.97
19751;BME280;4663;49.120;9.730;2022-12-07T01:13:08;98097.47;;;-1.27;93.15
19751;BME280;4663;49.120;9.730;2022-12-07T01:15:34;98088.66;;;-1.27;93.17
19751;BME280;4663;49.120;9.730;2022-12-07T01:17:59;98093.00;;;-1.26;92.74
19751;BME280;4663;49.120;9.730;2022-12-07T01:20:24;98096.28;;;-1.23;93.28
19751;BME280;4663;49.120;9.730;2022-12-07T01:22:49;98087.09;;;-1.43;91.82
19751;BME280;4663;49.120;9.730;2022-12-07T01:25:15;98098.22;;;-1.51;92.65
19751;BME280;4663;49.120;9.730;2022-12-07T01:27:40;98097.06;;;-1.73;93.01
19751;BME280;4663;49.120;9.730;2022-12-07T01:30:06;98098.34;;;-1.65;92.60
19751;BME280;4663;49.120;9.730;2022-12-07T01:32:32;98104.56;;;-1.92;92.88
19751;BME280;4663;49.120;9.730;2022-12-07T01:34:58;98094.81;;;-2.05;93.65
19751;BME280;4663;49.120;9.730;2022-12-07T01:37:23;98100.91;;;-2.17;93.68
19751;BME280;4663;49.120;9.730;2022-12-07T01:39:52;98101.66;;;-2.15;93.83
19751;BME280;4663;49.120;9.730;2022-12-07T01:42:18;98098.31;;;-2.04;93.20
19751;BME280;4663;49.120;9.730;2022-12-07T01:47:55;98108.94;;;-2.59;94.01
19751;BME280;4663;49.120;9.730;2022-12-07T01:50:25;98110.41;;;-2.28;93.88
19751;BME280;4663;49.120;9.730;2022-12-07T01:52:54;98116.25;;;-2.23;92.82
19751;BME280;4663;49.120;9.730;2022-12-07T01:55:22;98120.66;;;-2.36;93.34
19751;BME280;4663;49.120;9.730;2022-12-07T01:57:50;98116.47;;;-2.26;93.12
19751;BME280;4663;49.120;9.730;2022-12-07T02:00:17;98106.31;;;-2.19;93.17
19751;BME280;4663;49.120;9.730;2022-12-07T02:02:47;98101.06;;;-2.33;93.28
19751;BME280;4663;49.120;9.730;2022-12-07T02:05:14;98104.59;;;-2.33;93.25
19751;BME280;4663;49.120;9.730;2022-12-07T02:07:39;98104.09;;;-2.53;93.01
19751;BME280;4663;49.120;9.730;2022-12-07T02:10:34;98104.84;;;-2.51;93.97
19751;BME280;4663;49.120;9.730;2022-12-07T02:13:15;98100.16;;;-2.60;93.15
19751;BME280;4663;49.120;9.730;2022-12-07T02:21:34;98100.84;;;-2.71;94.12
19751;BME280;4663;49.120;9.730;2022-12-07T02:26:50;98096.66;;;-3.03;94.76
19751;BME280;4663;49.120;9.730;2022-12-07T02:29:24;98095.03;;;-2.76;93.90
19751;BME280;4663;49.120;9.730;2022-12-07T02:32:09;98086.44;;;-2.80;92.61
19751;BME280;4663;49.120;9.730;2022-12-07T02:34:47;98088.38;;;-2.96;94.00
19751;BME280;4663;49.120;9.730;2022-12-07T02:37:29;98081.81;;;-3.18;94.07
19751;BME280;4663;49.120;9.730;2022-12-07T02:40:11;98082.72;;;-3.05;94.57
19751;BME280;4663;49.120;9.730;2022-12-07T02:42:47;98081.31;;;-3.10;94.96
19751;BME280;4663;49.120;9.730;2022-12-07T02:45:18;98073.31;;;-2.81;94.36
19751;BME280;4663;49.120;9.730;2022-12-07T02:47:48;98076.47;;;-2.89;94.01
19751;BME280;4663;49.120;9.730;2022-12-07T02:50:19;98059.25;;;-2.82;93.46
19751;BME280;4663;49.120;9.730;2022-12-07T02:52:45;98059.81;;;-2.77;93.32
19751;BME280;4663;49.120;9.730;2022-12-07T02:55:11;98048.78;;;-2.83;93.25
19751;BME280;4663;49.120;9.730;2022-12-07T02:58:07;98060.00;;;-2.80;93.75
19751;BME280;4663;49.120;9.730;2022-12-07T03:00:54;98058.03;;;-2.76;93.75
19751;BME280;4663;49.120;9.730;2022-12-07T03:03:23;98053.94;;;-2.54;92.67
19751;BME280;4663;49.120;9.730;2022-12-07T03:06:11;98061.78;;;-2.53;93.06
19751;BME280;4663;49.120;9.730;2022-12-07T03:08:53;98058.94;;;-2.77;93.76
19751;BME280;4663;49.120;9.730;2022-12-07T03:11:45;98056.31;;;-2.50;93.65
19751;BME280;4663;49.120;9.730;2022-12-07T03:14:35;98054.28;;;-2.46;93.22
19751;BME280;4663;49.120;9.730;2022-12-07T03:17:08;98049.72;;;-2.57;93.27
19751;BME280;4663;49.120;9.730;2022-12-07T03:19:36;98046.44;;;-2.60;93.94
19751;BME280;4663;49.120;9.730;2022-12-07T03:22:07;98046.25;;;-2.44;93.34
19751;BME280;4663;49.120;9.730;2022-12-07T03:24:38;98041.59;;;-2.54;93.79
19751;BME280;4663;49.120;9.730;2022-12-07T03:27:20;98037.31;;;-2.29;93.11
19751;BME280;4663;49.120;9.730;2022-12-07T03:29:51;98033.28;;;-2.34;93.31
19751;BME280;4663;49.120;9.730;2022-12-07T03:32:36;98045.44;;;-2.32;93.41
19751;BME280;4663;49.120;9.730;2022-12-07T03:35:12;98030.28;;;-2.43;93.63
19751;BME280;4663;49.120;9.730;2022-12-07T03:38:00;98036.13;;;-2.25;93.59
19751;BME280;4663;49.120;9.730;2022-12-07T03:40:37;98032.00;;;-2.29;93.13
19751;BME280;4663;49.120;9.730;2022-12-07T03:43:05;98016.47;;;-2.20;93.51
19751;BME280;4663;49.120;9.730;2022-12-07T03:45:42;98013.41;;;-2.14;93.14
19751;BME280;4663;49.120;9.730;2022-12-07T03:53:47;98027.38;;;-1.99;92.15
19751;BME280;4663;49.120;9.730;2022-12-07T03:56:15;98034.56;;;-1.88;91.73
19751;BME280;4663;49.120;9.730;2022-12-07T03:58:41;98043.88;;;-1.95;92.05
19751;BME280;4663;49.120;9.730;2022-12-07T04:01:07;98042.84;;;-1.80;91.62
19751;BME280;4663;49.120;9.730;2022-12-07T04:03:32;98047.38;;;-2.08;92.16
19751;BME280;4663;49.120;9.730;2022-12-07T04:05:58;98051.19;;;-2.12;92.51
19751;BME280;4663;49.120;9.730;2022-12-07T04:08:24;98057.13;;;-1.95;93.04
19751;BME280;4663;49.120;9.730;2022-12-07T04:10:50;98047.59;;;-1.85;92.22
19751;BME280;4663;49.120;9.730;2022-12-07T04:13:15;98057.34;;;-1.99;92.93
19751;BME280;4663;49.120;9.730;2022-12-07T04:15:40;98054.47;;;-1.95;92.80
19751;BME280;4663;49.120;9.730;2022-12-07T04:18:05;98055.34;;;-1.82;92.41
19751;BME280;4663;49.120;9.730;2022-12-07T04:20:31;98044.97;;;-1.85;92.26
19751;BME280;4663;49.120;9.730;2022-12-07T04:22:56;98046.31;;;-1.92;92.91
19751;BME280;4663;49.120;9.730;2022-12-07T04:25:22;98043.25;;;-1.99;93.25
19751;BME280;4663;49.120;9.730;2022-12-07T04:27:47;98055.94;;;-1.91;93.59
19751;BME280;4663;49.120;9.730;2022-12-07T04:30:12;98067.72;;;-1.69;92.84
19751;BME280;4663;49.120;9.730;2022-12-07T04:32:38;98058.41;;;-1.75;92.62
19751;BME280;4663;49.120;9.730;2022-12-07T04:35:04;98063.59;;;-1.87;92.92
19751;BME280;4663;49.120;9.730;2022-12-07T04:37:29;98061.69;;;-1.72;93.40
19751;BME280;4663;49.120;9.730;2022-12-07T04:39:55;98053.00;;;-1.61;92.72
19751;BME280;4663;49.120;9.730;2022-12-07T04:42:20;98041.25;;;-1.69;93.27
19751;BME280;4663;49.120;9.730;2022-12-07T04:44:45;98040.19;;;-1.54;92.97
19751;BME280;4663;49.120;9.730;2022-12-07T04:47:11;98053.63;;;-1.57;92.09
19751;BME280;4663;49.120;9.730;2022-12-07T04:49:36;98040.72;;;-1.75;92.17
19751;BME280;4663;49.120;9.730;2022-12-07T04:52:01;98042.31;;;-1.59;92.13
19751;BME280;4663;49.120;9.730;2022-12-07T04:54:27;98040.38;;;-1.57;92.09
19751;BME280;4663;49.120;9.730;2022-12-07T04:56:52;98036.16;;;-1.60;92.10
19751;BME280;4663;49.120;9.730;2022-12-07T04:59:18;98029.78;;;-1.57;92.51
19751;BME280;4663;49.120;9.730;2022-12-07T05:01:43;98033.72;;;-1.76;93.14
19751;BME280;4663;49.120;9.730;2022-12-07T05:04:09;98041.13;;;-1.81;93.11
19751;BME280;4663;49.120;9.730;2022-12-07T05:06:34;98042.53;;;-1.75;93.22
19751;BME280;4663;49.120;9.730;2022-12-07T05:09:02;98046.97;;;-1.63;92.30
19751;BME280;4663;49.120;9.730;2022-12-07T05:11:27;98044.31;;;-1.76;92.52
19751;BME280;4663;49.120;9.730;2022-12-07T05:14:09;98047.50;;;-1.71;92.96
19751;BME280;4663;49.120;9.730;2022-12-07T05:16:36;98037.53;;;-1.80;93.41
19751;BME280;4663;49.120;9.730;2022-12-07T05:19:02;98045.06;;;-1.61;93.03
19751;BME280;4663;49.120;9.730;2022-12-07T05:21:28;98041.44;;;-1.60;92.18
19751;BME280;4663;49.120;9.730;2022-12-07T05:23:53;98039.25;;;-1.79;92.48
19751;BME280;4663;49.120;9.730;2022-12-07T05:26:19;98039.97;;;-1.77;93.05
19751;BME280;4663;49.120;9.730;2022-12-07T05:28:44;98040.50;;;-1.72;93.91
19751;BME280;4663;49.120;9.730;2022-12-07T05:31:09;98041.44;;;-1.60;93.10
19751;BME280;4663;49.120;9.730;2022-12-07T05:33:35;98039.88;;;-1.62;93.02
19751;BME280;4663;49.120;9.730;2022-12-07T05:36:00;98036.91;;;-1.71;93.13
19751;BME280;4663;49.120;9.730;2022-12-07T05:38:33;98036.25;;;-1.61;92.54
19751;BME280;4663;49.120;9.730;2022-12-07T05:41:03;98041.56;;;-1.61;92.83
19751;BME280;4663;49.120;9.730;2022-12-07T05:43:29;98052.56;;;-1.54;92.40
19751;BME280;4663;49.120;9.730;2022-12-07T05:45:55;98036.56;;;-1.53;92.18
19751;BME280;4663;49.120;9.730;2022-12-07T05:48:21;98036.56;;;-1.53;92.31
19751;BME280;4663;49.120;9.730;2022-12-07T05:50:50;98025.47;;;-1.58;92.72
19751;BME280;4663;49.120;9.730;2022-12-07T05:53:16;98028.63;;;-1.53;92.42
19751;BME280;4663;49.120;9.730;2022-12-07T05:55:41;98028.00;;;-1.56;92.93
19751;BME280;4663;49.120;9.730;2022-12-07T05:58:07;98033.50;;;-1.47;92.25
19751;BME280;4663;49.120;9.730;2022-12-07T06:00:51;98036.06;;;-1.84;93.40
19751;BME280;4663;49.120;9.730;2022-12-07T06:03:16;98047.59;;;-1.85;94.00
19751;BME280;4663;49.120;9.730;2022-12-07T06:05:42;98038.50;;;-1.68;93.62
19751;BME280;4663;49.120;9.730;2022-12-07T06:08:07;98046.13;;;-1.89;94.48
19751;BME280;4663;49.120;9.730;2022-12-07T06:10:33;98043.06;;;-1.96;94.40
19751;BME280;4663;49.120;9.730;2022-12-07T06:12:58;98040.09;;;-2.04;95.33
19751;BME280;4663;49.120;9.730;2022-12-07T06:15:23;98040.28;;;-1.81;95.07
19751;BME280;4663;49.120;9.730;2022-12-07T06:17:49;98040.50;;;-1.72;94.65
19751;BME280;4663;49.120;9.730;2022-12-07T06:20:14;98037.84;;;-1.72;93.81
19751;BME280;4663;49.120;9.730;2022-12-07T06:22:40;98041.56;;;-1.61;94.53
19751;BME280;4663;49.120;9.730;2022-12-07T06:25:05;98044.97;;;-1.59;93.80
19751;BME280;4663;49.120;9.730;2022-12-07T06:27:31;98039.13;;;-1.64;93.50
19751;BME280;4663;49.120;9.730;2022-12-07T06:29:58;98041.16;;;-1.68;93.34
19751;BME280;4663;49.120;9.730;2022-12-07T06:32:23;98044.22;;;-1.61;93.80
19751;BME280;4663;49.120;9.730;2022-12-07T06:34:49;98048.31;;;-1.57;93.53
19751;BME280;4663;49.120;9.730;2022-12-07T06:37:14;98042.31;;;-1.59;93.30
19751;BME280;4663;49.120;9.730;2022-12-07T06:39:39;98048.03;;;-1.52;93.45
19751;BME280;4663;49.120;9.730;2022-12-07T06:42:05;98046.66;;;-1.84;94.14
19751;BME280;4663;49.120;9.730;2022-12-07T06:44:30;98045.38;;;-1.65;93.42
19751;BME280;4663;49.120;9.730;2022-12-07T06:46:55;98044.22;;;-1.61;93.21
19751;BME280;4663;49.120;9.730;2022-12-07T06:49:21;98041.03;;;-1.53;93.15
19751;BME280;4663;49.120;9.730;2022-12-07T06:51:46;98047.28;;;-1.67;92.83
19751;BME280;4663;49.120;9.730;2022-12-07T06:54:13;98046.66;;;-1.58;92.91
19751;BME280;4663;49.120;9.730;2022-12-07T06:56:39;98046.97;;;-1.76;93.19
19751;BME280;4663;49.120;9.730;2022-12-07T06:59:05;98042.84;;;-1.67;93.98
19751;BME280;4663;49.120;9.730;2022-12-07T07:01:32;98047.06;;;-1.51;93.18
19751;BME280;4663;49.120;9.730;2022-12-07T07:03:57;98039.78;;;-1.23;92.29
19751;BME280;4663;49.120;9.730;2022-12-07T07:06:23;98037.47;;;-1.28;91.86
19751;BME280;4663;49.120;9.730;2022-12-07T07:08:49;98047.25;;;-1.41;92.69
19751;BME280;4663;49.120;9.730;2022-12-07T07:11:14;98041.53;;;-1.35;91.80
19751;BME280;4663;49.120;9.730;2022-12-07T07:13:39;98040.06;;;-1.39;91.94
19751;BME280;4663;49.120;9.730;2022-12-07T07:16:06;98046.16;;;-1.26;91.71
19751;BME280;4663;49.120;9.730;2022-12-07T07:18:31;98051.78;;;-1.30;91.89
19751;BME280;4663;49.120;9.730;2022-12-07T07:20:57;98052.31;;;-1.25;91.78
19751;BME280;4663;49.120;9.730;2022-12-07T07:23:23;98055.41;;;-1.45;91.53
19751;BME280;4663;49.120;9.730;2022-12-07T07:25:49;98056.16;;;-1.42;91.53
19751;BME280;4663;49.120;9.730;2022-12-07T07:28:15;98059.31;;;-1.24;91.76
19751;BME280;4663;49.120;9.730;2022-12-07T07:30:40;98057.84;;;-1.28;90.84
19751;BME280;4663;49.120;9.730;2022-12-07T07:33:06;98062.88;;;-1.12;91.29
19751;BME280;4663;49.120;9.730;2022-12-07T07:35:33;98067.94;;;-1.09;91.34
19751;BME280;4663;49.120;9.730;2022-12-07T07:38:00;98071.78;;;-1.13;91.68
19751;BME280;4663;49.120;9.730;2022-12-07T07:40:26;98064.47;;;-1.10;91.26
19751;BME280;4663;49.120;9.730;2022-12-07T07:42:53;98058.44;;;-1.12;91.47
19751;BME280;4663;49.120;9.730;2022-12-07T07:45:23;98065.63;;;-1.14;91.43
19751;BME280;4663;49.120;9.730;2022-12-07T07:47:49;98058.84;;;-1.18;91.53
19751;BME280;4663;49.120;9.730;2022-12-07T07:50:16;98075.25;;;-1.00;90.62
19751;BME280;4663;49.120;9.730;2022-12-07T07:52:41;98074.84;;;-0.94;90.55
19751;BME280;4663;49.120;9.730;2022-12-07T07:55:08;98066.44;;;-1.00;89.47
19751;BME280;4663;49.120;9.730;2022-12-07T07:57:37;98070.28;;;-0.91;89.56
19751;BME280;4663;49.120;9.730;2022-12-07T08:00:11;98075.47;;;-1.03;89.15
19751;BME280;4663;49.120;9.730;2022-12-07T08:02:37;98071.66;;;-0.86;89.26
19751;BME280;4663;49.120;9.730;2022-12-07T08:05:06;98076.97;;;-0.74;89.70
19751;BME280;4663;49.120;9.730;2022-12-07T08:07:34;98067.66;;;-0.80;89.35
19751;BME280;4663;49.120;9.730;2022-12-07T08:09:59;98072.66;;;-0.75;89.67
19751;BME280;4663;49.120;9.730;2022-12-07T08:12:24;98076.16;;;-0.75;88.91
19751;BME280;4663;49.120;9.730;2022-12-07T08:14:50;98076.09;;;-0.86;88.40
19751;BME280;4663;49.120;9.730;2022-12-07T08:17:15;98081.75;;;-0.66;88.45
19751;BME280;4663;49.120;9.730;2022-12-07T08:19:40;98082.78;;;-0.56;88.15
19751;BME280;4663;49.120;9.730;2022-12-07T08:22:06;98085.81;;;-0.49;88.95
19751;BME280;4663;49.120;9.730;2022-12-07T08:24:35;98079.81;;;-0.64;87.91
19751;BME280;4663;49.120;9.730;2022-12-07T08:27:01;98073.22;;;-0.59;87.49
19751;BME280;4663;49.120;9.730;2022-12-07T08:29:26;98073.38;;;-0.49;88.29
19751;BME280;4663;49.120;9.730;2022-12-07T08:31:52;98073.66;;;-0.40;88.05
19751;BME280;4663;49.120;9.730;2022-12-07T08:34:18;98077.75;;;-0.48;87.55
19751;BME280;4663;49.120;9.730;2022-12-07T08:36:43;98077.44;;;-0.32;86.95
19751;BME280;4663;49.120;9.730;2022-12-07T08:39:08;98075.38;;;-0.39;87.26
19751;BME280;4663;49.120;9.730;2022-12-07T08:41:34;98083.13;;;-0.25;86.99
19751;BME280;4663;49.120;9.730;2022-12-07T08:43:59;98074.22;;;-0.24;85.86
19751;BME280;4663;49.120;9.730;2022-12-07T08:46:30;98075.16;;;-0.25;85.69
19751;BME280;4663;49.120;9.730;2022-12-07T08:49:19;98060.91;;;-0.35;84.23
19751;BME280;4663;49.120;9.730;2022-12-07T08:51:47;98072.34;;;-0.35;87.04
19751;BME280;4663;49.120;9.730;2022-12-07T08:54:15;98080.72;;;-0.17;87.28
19751;BME280;4663;49.120;9.730;2022-12-07T08:56:42;98064.34;;;-0.10;85.96
19751;BME280;4663;49.120;9.730;2022-12-07T08:59:08;98061.97;;;-0.02;84.93
19751;BME280;4663;49.120;9.730;2022-12-07T09:01:33;98071.13;;;-0.06;85.26
19751;BME280;4663;49.120;9.730;2022-12-07T09:03:59;98077.19;;;0.07;85.77
19751;BME280;4663;49.120;9.730;2022-12-07T09:06:24;98069.34;;;0.17;84.63
19751;BME280;4663;49.120;9.730;2022-12-07T09:08:54;98071.66;;;0.22;84.26
19751;BME280;4663;49.120;9.730;2022-12-07T09:11:20;98070.47;;;0.38;83.93
19751;BME280;4663;49.120;9.730;2022-12-07T09:13:46;98065.16;;;0.38;83.75
19751;BME280;4663;49.120;9.730;2022-12-07T09:16:11;98069.50;;;0.27;83.13
19751;BME280;4663;49.120;9.730;2022-12-07T09:18:37;98068.91;;;0.35;83.92
19751;BME280;4663;49.120;9.730;2022-12-07T09:21:04;98066.84;;;0.39;84.18
19751;BME280;4663;49.120;9.730;2022-12-07T09:23:29;98062.13;;;0.19;83.08
19751;BME280;4663;49.120;9.730;2022-12-07T09:25:54;98071.69;;;0.45;83.83
19751;BME280;4663;49.120;9.730;2022-12-07T09:28:20;98069.16;;;0.55;83.70
19751;BME280;4663;49.120;9.730;2022-12-07T09:30:47;98067.94;;;0.47;83.05
19751;BME280;4663;49.120;9.730;2022-12-07T09:33:12;98066.38;;;0.56;84.69
19751;BME280;4663;49.120;9.730;2022-12-07T09:35:38;98065.41;;;0.34;82.92
19751;BME280;4663;49.120;9.730;2022-12-07T09:38:03;98077.25;;;0.53;82.97
19751;BME280;4663;49.120;9.730;2022-12-07T09:40:28;98078.47;;;0.72;83.27
19751;BME280;4663;49.120;9.730;2022-12-07T09:42:55;98074.47;;;0.55;83.19
19751;BME280;4663;49.120;9.730;2022-12-07T09:45:24;98075.19;;;0.57;83.61
19751;BME280;4663;49.120;9.730;2022-12-07T09:47:50;98070.97;;;0.89;84.35
19751;BME280;4663;49.120;9.730;2022-12-07T09:50:20;98067.69;;;0.96;83.63
19751;BME280;4663;49.120;9.730;2022-12-07T09:52:47;98067.31;;;1.01;83.90
19751;BME280;4663;49.120;9.730;2022-12-07T09:55:16;98065.28;;;0.36;83.13
19751;BME280;4663;49.120;9.730;2022-12-07T09:57:42;98070.13;;;0.77;84.26
19751;BME280;4663;49.120;9.730;2022-12-07T10:00:20;98072.66;;;0.44;82.00
19751;BME280;4663;49.120;9.730;2022-12-07T10:02:57;98061.78;;;0.47;81.86
19751;BME280;4663;49.120;9.730;2022-12-07T10:05:47;98063.59;;;0.46;82.99
19751;BME280;4663;49.120;9.730;2022-12-07T10:08:12;98067.09;;;0.70;85.49
19751;BME280;4663;49.120;9.730;2022-12-07T10:10:37;98052.59;;;0.85;84.14
19751;BME280;4663;49.120;9.730;2022-12-07T10:13:19;98048.25;;;0.61;82.96
19751;BME280;4663;49.120;9.730;2022-12-07T10:15:54;98055.88;;;0.55;82.92
19751;BME280;4663;49.120;9.730;2022-12-07T10:23:34;98034.31;;;-0.11;82.52
19751;BME280;4663;49.120;9.730;2022-12-07T10:25:59;98039.19;;;-0.29;83.18
19751;BME280;4663;49.120;9.730;2022-12-07T10:28:41;98050.88;;;0.04;85.10
19751;BME280;4663;49.120;9.730;2022-12-07T10:31:18;98042.94;;;0.50;86.08
19751;BME280;4663;49.120;9.730;2022-12-07T10:33:55;98033.75;;;0.54;84.17
19751;BME280;4663;49.120;9.730;2022-12-07T10:39:39;98035.72;;;0.41;83.88
19751;BME280;4663;49.120;9.730;2022-12-07T10:42:00;98030.03;;;0.34;84.37
19751;BME280;4663;49.120;9.730;2022-12-07T10:44:31;98027.97;;;0.60;83.82
19751;BME280;4663;49.120;9.730;2022-12-07T10:52:05;98023.13;;;0.43;83.47
19751;BME280;4663;49.120;9.730;2022-12-07T11:00:41;98017.28;;;0.95;81.86
19751;BME280;4663;49.120;9.730;2022-12-07T11:03:55;98007.63;;;0.82;81.81
19751;BME280;4663;49.120;9.730;2022-12-07T11:11:59;98011.84;;;0.96;83.15
19751;BME280;4663;49.120;9.730;2022-12-07T11:14:38;98008.56;;;1.04;82.56
19751;BME280;4663;49.120;9.730;2022-12-07T11:17:20;98002.78;;;0.99;82.52
19751;BME280;4663;49.120;9.730;2022-12-07T11:20:00;98005.84;;;0.71;83.07
19751;BME280;4663;49.120;9.730;2022-12-07T11:22:59;98006.25;;;0.55;83.49
19751;BME280;4663;49.120;9.730;2022-12-07T11:36:43;98000.53;;;0.71;84.42
19751;BME280;4663;49.120;9.730;2022-12-07T11:41:48;97998.44;;;0.86;86.33
19751;BME280;4663;49.120;9.730;2022-12-07T11:47:16;97993.00;;;1.32;85.30
19751;BME280;4663;49.120;9.730;2022-12-07T11:49:55;97981.94;;;1.16;84.44
19751;BME280;4663;49.120;9.730;2022-12-07T11:52:27;97982.91;;;1.15;84.13
19751;BME280;4663;49.120;9.730;2022-12-07T11:54:57;97982.09;;;1.03;83.83
19751;BME280;4663;49.120;9.730;2022-12-07T11:57:31;97977.78;;;0.90;83.02
19751;BME280;4663;49.120;9.730;2022-12-07T12:00:04;97978.69;;;0.68;84.03
19751;BME280;4663;49.120;9.730;2022-12-07T12:03:17;97972.81;;;0.97;84.20
19751;BME280;4663;49.120;9.730;2022-12-07T12:05:25;97971.97;;;0.96;84.33
19751;BME280;4663;49.120;9.730;2022-12-07T12:08:12;97976.78;;;1.03;85.18
19751;BME280;4663;49.120;9.730;2022-12-07T12:10:55;97965.41;;;1.00;83.26
19751;BME280;4663;49.120;9.730;2022-12-07T12:21:54;97957.25;;;0.81;82.74
19751;BME280;4663;49.120;9.730;2022-12-07T12:24:27;97952.41;;;1.19;83.19
19751;BME280;4663;49.120;9.730;2022-12-07T12:27:01;97947.59;;;1.24;83.33
19751;BME280;4663;49.120;9.730;2022-12-07T12:29:32;97948.41;;;1.24;83.20
19751;BME280;4663;49.120;9.730;2022-12-07T12:32:40;97946.22;;;0.97;83.60
19751;BME280;4663;49.120;9.730;2022-12-07T12:37:54;97947.28;;;1.06;82.55
19751;BME280;4663;49.120;9.730;2022-12-07T12:42:53;97937.97;;;1.11;81.91
19751;BME280;4663;49.120;9.730;2022-12-07T12:45:22;97948.59;;;1.11;82.55
19751;BME280;4663;49.120;9.730;2022-12-07T12:48:00;97942.41;;;0.78;82.18
19751;BME280;4663;49.120;9.730;2022-12-07T12:50:31;97943.59;;;0.85;83.04
19751;BME280;4663;49.120;9.730;2022-12-07T12:53:03;97938.81;;;1.00;82.96
19751;BME280;4663;49.120;9.730;2022-12-07T13:00:46;97935.75;;;0.84;84.10
19751;BME280;4663;49.120;9.730;2022-12-07T13:03:31;97932.91;;;1.08;83.26
19751;BME280;4663;49.120;9.730;2022-12-07T13:06:34;97941.41;;;1.23;84.30
19751;BME280;4663;49.120;9.730;2022-12-07T13:09:00;97930.50;;;1.27;82.72
19751;BME280;4663;49.120;9.730;2022-12-07T13:11:34;97925.69;;;1.20;81.81
19751;BME280;4663;49.120;9.730;2022-12-07T13:14:39;97924.00;;;0.86;82.20
19751;BME280;4663;49.120;9.730;2022-12-07T13:17:53;97918.03;;;1.06;82.76
19751;BME280;4663;49.120;9.730;2022-12-07T13:20:07;97915.34;;;1.17;82.08
19751;BME280;4663;49.120;9.730;2022-12-07T13:25:27;97924.66;;;1.11;83.84
19751;BME280;4663;49.120;9.730;2022-12-07T13:28:04;97920.19;;;1.12;82.83
19751;BME280;4663;49.120;9.730;2022-12-07T13:30:46;97907.13;;;0.88;81.87
19751;BME280;4663;49.120;9.730;2022-12-07T13:33:12;97908.22;;;1.06;82.07
19751;BME280;4663;49.120;9.730;2022-12-07T13:35:38;97911.69;;;1.18;83.82
19751;BME280;4663;49.120;9.730;2022-12-07T13:38:32;97906.59;;;0.94;82.71
19751;BME280;4663;49.120;9.730;2022-12-07T13:43:27;97901.25;;;0.61;83.30
19751;BME280;4663;49.120;9.730;2022-12-07T13:45:57;97902.53;;;0.78;83.05
19751;BME280;4663;49.120;9.730;2022-12-07T13:48:43;97907.19;;;0.97;83.93
19751;BME280;4663;49.120;9.730;2022-12-07T13:51:17;97899.50;;;1.16;83.31
19751;BME280;4663;49.120;9.730;2022-12-07T13:53:47;97895.72;;;0.97;82.30
19751;BME280;4663;49.120;9.730;2022-12-07T13:56:13;97900.78;;;1.00;83.27
19751;BME280;4663;49.120;9.730;2022-12-07T13:58:40;97907.97;;;1.09;83.10
19751;BME280;4663;49.120;9.730;2022-12-07T14:01:06;97905.94;;;1.13;83.34
19751;BME280;4663;49.120;9.730;2022-12-07T14:03:33;97903.06;;;1.26;82.59
19751;BME280;4663;49.120;9.730;2022-12-07T14:08:31;97909.94;;;1.50;82.92
19751;BME280;4663;49.120;9.730;2022-12-07T14:10:57;97901.38;;;1.46;82.36
19751;BME280;4663;49.120;9.730;2022-12-07T14:13:36;97900.88;;;1.31;81.12
19751;BME280;4663;49.120;9.730;2022-12-07T14:18:45;97907.28;;;1.29;80.52
19751;BME280;4663;49.120;9.730;2022-12-07T14:23:37;97917.25;;;1.15;81.76
19751;BME280;4663;49.120;9.730;2022-12-07T14:28:38;97910.75;;;1.08;81.95
19751;BME280;4663;49.120;9.730;2022-12-07T14:31:11;97912.28;;;1.22;82.39
19751;BME280;4663;49.120;9.730;2022-12-07T14:33:38;97910.34;;;1.24;83.06
19751;BME280;4663;49.120;9.730;2022-12-07T14:36:04;97899.75;;;1.12;82.53
19751;BME280;4663;49.120;9.730;2022-12-07T14:38:29;97898.03;;;1.23;82.24
19751;BME280;4663;49.120;9.730;2022-12-07T14:40:55;97893.50;;;1.02;81.66
19751;BME280;4663;49.120;9.730;2022-12-07T14:43:41;97893.69;;;1.10;82.85
19751;BME280;4663;49.120;9.730;2022-12-07T14:46:06;97898.44;;;1.07;82.25
19751;BME280;4663;49.120;9.730;2022-12-07T14:48:32;97902.91;;;1.06;81.92
19751;BME280;4663;49.120;9.730;2022-12-07T14:50:57;97905.84;;;1.03;81.88
19751;BME280;4663;49.120;9.730;2022-12-07T14:53:30;97913.06;;;1.12;82.48
19751;BME280;4663;49.120;9.730;2022-12-07T14:55:56;97901.69;;;1.10;81.84
19751;BME280;4663;49.120;9.730;2022-12-07T14:58:22;97904.19;;;0.91;81.92
19751;BME280;4663;49.120;9.730;2022-12-07T15:00:47;97907.66;;;1.03;83.56
19751;BME280;4663;49.120;9.730;2022-12-07T15:03:13;97899.81;;;1.01;82.58